sensor_id;sensor_type;location;lat;lon;timestamp;P1;durP1;ratioP1;P2;durP2;ratioP2
1957;SDS011;979;51.076;13.748;2022-08-19T00:01:53;27.47;;;25.77;;
1957;SDS011;979;51.076;13.748;2022-08-19T00:04:26;30.73;;;28.43;;
1957;SDS011;979;51.076;13.748;2022-08-19T00:06:56;29.20;;;27.30;;
1957;SDS011;979;51.076;13.748;2022-08-19T00:09:27;29.57;;;27.67;;
1957;SDS011;979;51.076;13.748;2022-08-19T00:11:58;29.67;;;27.73;;
1957;SDS011;979;51.076;13.748;2022-08-19T00:14:27;28.37;;;26.60;;
1957;SDS011;979;51.076;13.748;2022-08-19T00:16:58;30.63;;;28.50;;
1957;SDS011;979;51.076;13.748;2022-08-19T00:19:27;29.87;;;27.87;;
1957;SDS011;979;51.076;13.748;2022-08-19T00:21:55;29.63;;;27.67;;
1957;SDS011;979;51.076;13.748;2022-08-19T00:24:23;29.50;;;27.50;;
1957;SDS011;979;51.076;13.748;2022-08-19T00:26:53;30.23;;;28.23;;
1957;SDS011;979;51.076;13.748;2022-08-19T00:29:42;31.10;;;28.90;;
1957;SDS011;979;51.076;13.748;2022-08-19T00:32:11;30.37;;;28.17;;
1957;SDS011;979;51.076;13.748;2022-08-19T00:34:43;30.63;;;28.50;;
1957;SDS011;979;51.076;13.748;2022-08-19T00:37:11;30.10;;;28.10;;
1957;SDS011;979;51.076;13.748;2022-08-19T00:39:39;32.53;;;29.47;;
1957;SDS011;979;51.076;13.748;2022-08-19T00:42:11;31.40;;;29.30;;
1957;SDS011;979;51.076;13.748;2022-08-19T00:44:41;31.23;;;29.13;;
1957;SDS011;979;51.076;13.748;2022-08-19T00:47:12;29.30;;;27.40;;
1957;SDS011;979;51.076;13.748;2022-08-19T00:49:42;32.97;;;30.50;;
1957;SDS011;979;51.076;13.748;2022-08-19T00:52:21;32.63;;;30.40;;
1957;SDS011;979;51.076;13.748;2022-08-19T00:54:55;32.70;;;30.20;;
1957;SDS011;979;51.076;13.748;2022-08-19T00:57:26;33.30;;;31.13;;
1957;SDS011;979;51.076;13.748;2022-08-19T00:59:58;33.17;;;30.87;;
1957;SDS011;979;51.076;13.748;2022-08-19T01:02:31;33.50;;;31.20;;
1957;SDS011;979;51.076;13.748;2022-08-19T01:05:00;33.43;;;31.23;;
1957;SDS011;979;51.076;13.748;2022-08-19T01:07:32;33.57;;;31.27;;
1957;SDS011;979;51.076;13.748;2022-08-19T01:10:04;33.37;;;30.97;;
1957;SDS011;979;51.076;13.748;2022-08-19T01:12:38;32.13;;;29.93;;
1957;SDS011;979;51.076;13.748;2022-08-19T01:15:08;33.57;;;30.80;;
1957;SDS011;979;51.076;13.748;2022-08-19T01:17:42;34.37;;;31.83;;
1957;SDS011;979;51.076;13.748;2022-08-19T01:20:16;33.73;;;31.43;;
1957;SDS011;979;51.076;13.748;2022-08-19T01:22:51;33.63;;;31.23;;
1957;SDS011;979;51.076;13.748;2022-08-19T01:25:22;34.33;;;31.73;;
1957;SDS011;979;51.076;13.748;2022-08-19T01:27:54;35.13;;;32.53;;
1957;SDS011;979;51.076;13.748;2022-08-19T01:30:35;35.20;;;32.60;;
1957;SDS011;979;51.076;13.748;2022-08-19T01:33:03;36.50;;;33.80;;
1957;SDS011;979;51.076;13.748;2022-08-19T01:35:32;33.63;;;31.17;;
1957;SDS011;979;51.076;13.748;2022-08-19T01:38:07;35.10;;;32.40;;
1957;SDS011;979;51.076;13.748;2022-08-19T01:40:39;35.47;;;32.77;;
1957;SDS011;979;51.076;13.748;2022-08-19T01:43:10;35.93;;;33.10;;
1957;SDS011;979;51.076;13.748;2022-08-19T01:45:39;35.53;;;32.77;;
1957;SDS011;979;51.076;13.748;2022-08-19T01:48:07;36.40;;;33.40;;
1957;SDS011;979;51.076;13.748;2022-08-19T01:50:35;35.77;;;32.77;;
1957;SDS011;979;51.076;13.748;2022-08-19T01:53:06;36.63;;;33.80;;
1957;SDS011;979;51.076;13.748;2022-08-19T01:55:37;35.30;;;32.60;;
1957;SDS011;979;51.076;13.748;2022-08-19T01:58:08;34.70;;;31.93;;
1957;SDS011;979;51.076;13.748;2022-08-19T02:00:43;32.77;;;30.43;;
1957;SDS011;979;51.076;13.748;2022-08-19T02:03:12;35.77;;;33.20;;
1957;SDS011;979;51.076;13.748;2022-08-19T02:05:41;33.53;;;31.13;;
1957;SDS011;979;51.076;13.748;2022-08-19T02:08:11;33.37;;;30.90;;
1957;SDS011;979;51.076;13.748;2022-08-19T02:10:40;34.23;;;31.70;;
1957;SDS011;979;51.076;13.748;2022-08-19T02:13:09;34.07;;;31.67;;
1957;SDS011;979;51.076;13.748;2022-08-19T02:15:39;34.30;;;31.77;;
1957;SDS011;979;51.076;13.748;2022-08-19T02:18:08;34.47;;;31.27;;
1957;SDS011;979;51.076;13.748;2022-08-19T02:20:37;33.77;;;31.47;;
1957;SDS011;979;51.076;13.748;2022-08-19T02:23:08;33.40;;;30.90;;
1957;SDS011;979;51.076;13.748;2022-08-19T02:25:44;34.90;;;32.50;;
1957;SDS011;979;51.076;13.748;2022-08-19T02:28:14;35.63;;;33.10;;
1957;SDS011;979;51.076;13.748;2022-08-19T02:30:44;34.30;;;31.80;;
1957;SDS011;979;51.076;13.748;2022-08-19T02:33:14;37.53;;;34.67;;
1957;SDS011;979;51.076;13.748;2022-08-19T02:35:43;35.13;;;32.50;;
1957;SDS011;979;51.076;13.748;2022-08-19T02:38:12;34.97;;;32.37;;
1957;SDS011;979;51.076;13.748;2022-08-19T02:40:53;35.27;;;32.67;;
1957;SDS011;979;51.076;13.748;2022-08-19T02:43:23;33.63;;;31.33;;
1957;SDS011;979;51.076;13.748;2022-08-19T02:45:52;35.00;;;32.40;;
1957;SDS011;979;51.076;13.748;2022-08-19T02:48:21;35.23;;;32.73;;
1957;SDS011;979;51.076;13.748;2022-08-19T02:50:52;33.67;;;31.17;;
1957;SDS011;979;51.076;13.748;2022-08-19T02:53:24;34.97;;;32.30;;
1957;SDS011;979;51.076;13.748;2022-08-19T02:55:57;35.30;;;32.80;;
1957;SDS011;979;51.076;13.748;2022-08-19T02:58:25;36.90;;;34.10;;
1957;SDS011;979;51.076;13.748;2022-08-19T03:00:54;34.07;;;31.57;;
1957;SDS011;979;51.076;13.748;2022-08-19T03:03:24;33.70;;;31.50;;
1957;SDS011;979;51.076;13.748;2022-08-19T03:06:02;35.40;;;32.80;;
1957;SDS011;979;51.076;13.748;2022-08-19T03:08:38;34.97;;;32.40;;
1957;SDS011;979;51.076;13.748;2022-08-19T03:11:13;36.00;;;33.10;;
1957;SDS011;979;51.076;13.748;2022-08-19T03:13:42;34.80;;;32.20;;
1957;SDS011;979;51.076;13.748;2022-08-19T03:16:11;35.30;;;32.60;;
1957;SDS011;979;51.076;13.748;2022-08-19T03:18:47;35.73;;;33.20;;
1957;SDS011;979;51.076;13.748;2022-08-19T03:21:16;36.43;;;33.53;;
1957;SDS011;979;51.076;13.748;2022-08-19T03:23:46;35.63;;;33.10;;
1957;SDS011;979;51.076;13.748;2022-08-19T03:26:14;36.77;;;33.97;;
1957;SDS011;979;51.076;13.748;2022-08-19T03:28:45;37.40;;;34.40;;
1957;SDS011;979;51.076;13.748;2022-08-19T03:31:24;36.90;;;34.17;;
1957;SDS011;979;51.076;13.748;2022-08-19T03:34:10;36.40;;;33.80;;
1957;SDS011;979;51.076;13.748;2022-08-19T03:36:40;36.60;;;34.00;;
1957;SDS011;979;51.076;13.748;2022-08-19T03:39:10;35.60;;;33.10;;
1957;SDS011;979;51.076;13.748;2022-08-19T03:41:39;35.83;;;33.33;;
1957;SDS011;979;51.076;13.748;2022-08-19T03:44:11;36.50;;;33.90;;
1957;SDS011;979;51.076;13.748;2022-08-19T03:46:47;36.33;;;33.63;;
1957;SDS011;979;51.076;13.748;2022-08-19T03:49:16;37.60;;;34.57;;
1957;SDS011;979;51.076;13.748;2022-08-19T03:51:46;29.90;;;28.00;;
1957;SDS011;979;51.076;13.748;2022-08-19T03:54:19;36.47;;;33.77;;
1957;SDS011;979;51.076;13.748;2022-08-19T03:56:50;35.20;;;32.60;;
1957;SDS011;979;51.076;13.748;2022-08-19T03:59:23;36.77;;;34.17;;
1957;SDS011;979;51.076;13.748;2022-08-19T04:01:53;35.13;;;32.50;;
1957;SDS011;979;51.076;13.748;2022-08-19T04:04:22;37.37;;;34.40;;
1957;SDS011;979;51.076;13.748;2022-08-19T04:06:54;36.40;;;33.57;;
1957;SDS011;979;51.076;13.748;2022-08-19T04:09:24;35.87;;;33.27;;
1957;SDS011;979;51.076;13.748;2022-08-19T04:11:54;34.03;;;31.53;;
1957;SDS011;979;51.076;13.748;2022-08-19T04:14:27;37.27;;;34.43;;
1957;SDS011;979;51.076;13.748;2022-08-19T04:16:57;36.40;;;33.70;;
1957;SDS011;979;51.076;13.748;2022-08-19T04:19:28;37.17;;;34.27;;
1957;SDS011;979;51.076;13.748;2022-08-19T04:21:57;39.13;;;36.03;;
1957;SDS011;979;51.076;13.748;2022-08-19T04:24:27;37.67;;;34.70;;
1957;SDS011;979;51.076;13.748;2022-08-19T04:26:58;38.87;;;35.87;;
1957;SDS011;979;51.076;13.748;2022-08-19T04:29:27;37.00;;;34.10;;
1957;SDS011;979;51.076;13.748;2022-08-19T04:31:56;38.57;;;35.57;;
1957;SDS011;979;51.076;13.748;2022-08-19T04:34:37;39.17;;;36.00;;
1957;SDS011;979;51.076;13.748;2022-08-19T04:37:26;38.33;;;35.43;;
1957;SDS011;979;51.076;13.748;2022-08-19T04:40:04;38.57;;;35.67;;
1957;SDS011;979;51.076;13.748;2022-08-19T04:42:51;38.80;;;36.00;;
1957;SDS011;979;51.076;13.748;2022-08-19T04:45:20;35.80;;;33.00;;
1957;SDS011;979;51.076;13.748;2022-08-19T04:47:53;37.37;;;34.67;;
1957;SDS011;979;51.076;13.748;2022-08-19T04:50:44;38.07;;;35.07;;
1957;SDS011;979;51.076;13.748;2022-08-19T04:53:12;37.13;;;34.43;;
1957;SDS011;979;51.076;13.748;2022-08-19T04:55:42;38.50;;;35.57;;
1957;SDS011;979;51.076;13.748;2022-08-19T04:58:11;36.17;;;33.70;;
1957;SDS011;979;51.076;13.748;2022-08-19T05:00:39;35.23;;;32.50;;
1957;SDS011;979;51.076;13.748;2022-08-19T05:03:08;26.30;;;24.70;;
1957;SDS011;979;51.076;13.748;2022-08-19T05:05:38;36.57;;;33.57;;
1957;SDS011;979;51.076;13.748;2022-08-19T05:08:11;36.40;;;33.43;;
1957;SDS011;979;51.076;13.748;2022-08-19T05:10:40;38.63;;;35.60;;
1957;SDS011;979;51.076;13.748;2022-08-19T05:13:10;37.43;;;34.53;;
1957;SDS011;979;51.076;13.748;2022-08-19T05:15:39;36.60;;;34.00;;
1957;SDS011;979;51.076;13.748;2022-08-19T05:18:08;36.27;;;33.73;;
1957;SDS011;979;51.076;13.748;2022-08-19T05:20:54;37.30;;;34.70;;
1957;SDS011;979;51.076;13.748;2022-08-19T05:23:42;36.20;;;33.70;;
1957;SDS011;979;51.076;13.748;2022-08-19T05:26:12;38.17;;;35.30;;
1957;SDS011;979;51.076;13.748;2022-08-19T05:28:42;31.93;;;29.67;;
1957;SDS011;979;51.076;13.748;2022-08-19T05:31:11;38.27;;;35.47;;
1957;SDS011;979;51.076;13.748;2022-08-19T05:33:39;35.93;;;33.17;;
1957;SDS011;979;51.076;13.748;2022-08-19T05:36:07;35.37;;;32.87;;
1957;SDS011;979;51.076;13.748;2022-08-19T05:38:38;34.17;;;31.80;;
1957;SDS011;979;51.076;13.748;2022-08-19T05:41:07;36.87;;;34.07;;
1957;SDS011;979;51.076;13.748;2022-08-19T05:43:37;36.13;;;33.53;;
1957;SDS011;979;51.076;13.748;2022-08-19T05:46:06;35.60;;;33.10;;
1957;SDS011;979;51.076;13.748;2022-08-19T05:48:35;36.80;;;34.07;;
1957;SDS011;979;51.076;13.748;2022-08-19T05:51:06;37.33;;;34.23;;
1957;SDS011;979;51.076;13.748;2022-08-19T05:53:37;35.47;;;32.90;;
1957;SDS011;979;51.076;13.748;2022-08-19T05:56:06;36.93;;;34.23;;
1957;SDS011;979;51.076;13.748;2022-08-19T05:58:35;37.07;;;34.03;;
1957;SDS011;979;51.076;13.748;2022-08-19T06:01:09;37.90;;;35.00;;
1957;SDS011;979;51.076;13.748;2022-08-19T06:03:39;36.50;;;33.70;;
1957;SDS011;979;51.076;13.748;2022-08-19T06:06:08;37.50;;;34.80;;
1957;SDS011;979;51.076;13.748;2022-08-19T06:08:41;36.47;;;33.40;;
1957;SDS011;979;51.076;13.748;2022-08-19T06:11:15;33.30;;;31.10;;
1957;SDS011;979;51.076;13.748;2022-08-19T06:13:48;30.93;;;28.83;;
1957;SDS011;979;51.076;13.748;2022-08-19T06:16:25;31.57;;;29.23;;
1957;SDS011;979;51.076;13.748;2022-08-19T06:18:55;32.60;;;30.40;;
1957;SDS011;979;51.076;13.748;2022-08-19T06:21:25;30.10;;;28.20;;
1957;SDS011;979;51.076;13.748;2022-08-19T06:23:55;30.37;;;28.40;;
1957;SDS011;979;51.076;13.748;2022-08-19T06:26:24;30.83;;;28.73;;
1957;SDS011;979;51.076;13.748;2022-08-19T06:28:55;30.53;;;28.53;;
1957;SDS011;979;51.076;13.748;2022-08-19T06:31:24;29.13;;;27.00;;
1957;SDS011;979;51.076;13.748;2022-08-19T06:33:53;29.33;;;27.33;;
1957;SDS011;979;51.076;13.748;2022-08-19T06:36:23;27.70;;;25.80;;
1957;SDS011;979;51.076;13.748;2022-08-19T06:39:06;27.90;;;26.20;;
1957;SDS011;979;51.076;13.748;2022-08-19T06:41:36;28.07;;;26.27;;
1957;SDS011;979;51.076;13.748;2022-08-19T06:44:18;29.67;;;27.77;;
1957;SDS011;979;51.076;13.748;2022-08-19T06:46:50;29.67;;;27.63;;
1957;SDS011;979;51.076;13.748;2022-08-19T06:49:22;28.97;;;27.07;;
1957;SDS011;979;51.076;13.748;2022-08-19T06:51:58;30.50;;;28.40;;
1957;SDS011;979;51.076;13.748;2022-08-19T06:54:27;30.37;;;28.37;;
1957;SDS011;979;51.076;13.748;2022-08-19T06:57:20;31.70;;;29.60;;
1957;SDS011;979;51.076;13.748;2022-08-19T06:59:50;32.63;;;30.30;;
1957;SDS011;979;51.076;13.748;2022-08-19T07:02:18;32.93;;;30.57;;
1957;SDS011;979;51.076;13.748;2022-08-19T07:04:47;33.70;;;31.20;;
1957;SDS011;979;51.076;13.748;2022-08-19T07:07:18;32.63;;;30.20;;
1957;SDS011;979;51.076;13.748;2022-08-19T07:09:48;33.47;;;30.87;;
1957;SDS011;979;51.076;13.748;2022-08-19T07:12:26;34.73;;;31.73;;
1957;SDS011;979;51.076;13.748;2022-08-19T07:15:01;32.10;;;29.70;;
1957;SDS011;979;51.076;13.748;2022-08-19T07:17:31;34.07;;;31.57;;
1957;SDS011;979;51.076;13.748;2022-08-19T07:20:01;35.33;;;32.70;;
1957;SDS011;979;51.076;13.748;2022-08-19T07:22:34;34.80;;;32.00;;
1957;SDS011;979;51.076;13.748;2022-08-19T07:25:05;35.10;;;32.40;;
1957;SDS011;979;51.076;13.748;2022-08-19T07:27:36;35.60;;;32.93;;
1957;SDS011;979;51.076;13.748;2022-08-19T07:30:07;34.80;;;32.20;;
1957;SDS011;979;51.076;13.748;2022-08-19T07:32:38;36.73;;;33.83;;
1957;SDS011;979;51.076;13.748;2022-08-19T07:35:07;37.27;;;34.57;;
1957;SDS011;979;51.076;13.748;2022-08-19T07:37:36;35.73;;;33.23;;
1957;SDS011;979;51.076;13.748;2022-08-19T07:40:06;37.30;;;34.20;;
1957;SDS011;979;51.076;13.748;2022-08-19T07:42:35;36.77;;;33.67;;
1957;SDS011;979;51.076;13.748;2022-08-19T07:45:03;39.33;;;35.90;;
1957;SDS011;979;51.076;13.748;2022-08-19T07:47:34;37.97;;;34.87;;
1957;SDS011;979;51.076;13.748;2022-08-19T07:50:16;34.70;;;31.80;;
1957;SDS011;979;51.076;13.748;2022-08-19T07:52:49;33.50;;;30.90;;
1957;SDS011;979;51.076;13.748;2022-08-19T07:55:19;36.43;;;33.60;;
1957;SDS011;979;51.076;13.748;2022-08-19T07:58:08;36.07;;;33.17;;
1957;SDS011;979;51.076;13.748;2022-08-19T08:00:40;37.63;;;34.63;;
1957;SDS011;979;51.076;13.748;2022-08-19T08:03:10;37.90;;;34.80;;
1957;SDS011;979;51.076;13.748;2022-08-19T08:05:39;38.33;;;35.30;;
1957;SDS011;979;51.076;13.748;2022-08-19T08:08:28;38.23;;;35.03;;
1957;SDS011;979;51.076;13.748;2022-08-19T08:11:14;37.87;;;34.87;;
1957;SDS011;979;51.076;13.748;2022-08-19T08:13:46;38.23;;;34.80;;
1957;SDS011;979;51.076;13.748;2022-08-19T08:16:26;40.30;;;36.63;;
1957;SDS011;979;51.076;13.748;2022-08-19T08:18:59;37.70;;;34.80;;
1957;SDS011;979;51.076;13.748;2022-08-19T08:21:29;36.33;;;33.60;;
1957;SDS011;979;51.076;13.748;2022-08-19T08:23:59;38.57;;;35.40;;
1957;SDS011;979;51.076;13.748;2022-08-19T08:26:29;38.10;;;35.03;;
1957;SDS011;979;51.076;13.748;2022-08-19T08:29:00;38.70;;;35.50;;
1957;SDS011;979;51.076;13.748;2022-08-19T08:31:38;37.10;;;34.07;;
1957;SDS011;979;51.076;13.748;2022-08-19T08:34:09;34.13;;;31.50;;
1957;SDS011;979;51.076;13.748;2022-08-19T08:36:41;34.13;;;31.80;;
1957;SDS011;979;51.076;13.748;2022-08-19T08:39:13;35.03;;;32.30;;
1957;SDS011;979;51.076;13.748;2022-08-19T08:41:44;33.03;;;30.77;;
1957;SDS011;979;51.076;13.748;2022-08-19T08:44:23;34.27;;;31.97;;
1957;SDS011;979;51.076;13.748;2022-08-19T08:47:01;33.90;;;31.60;;
1957;SDS011;979;51.076;13.748;2022-08-19T08:49:39;32.87;;;30.47;;
1957;SDS011;979;51.076;13.748;2022-08-19T08:52:11;32.63;;;30.23;;
1957;SDS011;979;51.076;13.748;2022-08-19T08:54:47;32.10;;;30.00;;
1957;SDS011;979;51.076;13.748;2022-08-19T08:57:24;32.30;;;29.90;;
1957;SDS011;979;51.076;13.748;2022-08-19T09:00:07;30.90;;;28.80;;
1957;SDS011;979;51.076;13.748;2022-08-19T09:02:41;31.27;;;29.10;;
1957;SDS011;979;51.076;13.748;2022-08-19T09:05:17;30.90;;;28.80;;
1957;SDS011;979;51.076;13.748;2022-08-19T09:07:52;31.80;;;29.60;;
1957;SDS011;979;51.076;13.748;2022-08-19T09:10:28;32.77;;;30.67;;
1957;SDS011;979;51.076;13.748;2022-08-19T09:13:11;30.43;;;28.60;;
1957;SDS011;979;51.076;13.748;2022-08-19T09:15:50;32.40;;;30.30;;
1957;SDS011;979;51.076;13.748;2022-08-19T09:18:22;34.17;;;31.73;;
1957;SDS011;979;51.076;13.748;2022-08-19T09:20:57;31.63;;;29.50;;
1957;SDS011;979;51.076;13.748;2022-08-19T09:23:31;34.13;;;31.63;;
1957;SDS011;979;51.076;13.748;2022-08-19T09:26:04;32.63;;;30.53;;
1957;SDS011;979;51.076;13.748;2022-08-19T09:28:36;34.17;;;31.70;;
1957;SDS011;979;51.076;13.748;2022-08-19T09:31:09;32.07;;;29.43;;
1957;SDS011;979;51.076;13.748;2022-08-19T09:33:38;31.87;;;29.57;;
1957;SDS011;979;51.076;13.748;2022-08-19T09:36:12;33.03;;;30.73;;
1957;SDS011;979;51.076;13.748;2022-08-19T09:39:02;31.80;;;29.60;;
1957;SDS011;979;51.076;13.748;2022-08-19T09:41:44;31.80;;;29.80;;
1957;SDS011;979;51.076;13.748;2022-08-19T09:44:14;33.50;;;31.20;;
1957;SDS011;979;51.076;13.748;2022-08-19T09:46:53;34.50;;;32.10;;
1957;SDS011;979;51.076;13.748;2022-08-19T09:49:22;32.33;;;30.17;;
1957;SDS011;979;51.076;13.748;2022-08-19T09:51:52;33.00;;;30.83;;
1957;SDS011;979;51.076;13.748;2022-08-19T09:54:22;33.17;;;30.67;;
1957;SDS011;979;51.076;13.748;2022-08-19T09:56:57;34.30;;;31.60;;
1957;SDS011;979;51.076;13.748;2022-08-19T09:59:35;32.90;;;30.30;;
1957;SDS011;979;51.076;13.748;2022-08-19T10:02:03;32.97;;;30.83;;
1957;SDS011;979;51.076;13.748;2022-08-19T10:04:38;34.50;;;32.20;;
1957;SDS011;979;51.076;13.748;2022-08-19T10:07:30;31.37;;;29.17;;
1957;SDS011;979;51.076;13.748;2022-08-19T10:10:02;29.83;;;28.03;;
1957;SDS011;979;51.076;13.748;2022-08-19T10:12:33;31.10;;;29.10;;
1957;SDS011;979;51.076;13.748;2022-08-19T10:15:02;31.17;;;29.17;;
1957;SDS011;979;51.076;13.748;2022-08-19T10:17:32;30.57;;;28.67;;
1957;SDS011;979;51.076;13.748;2022-08-19T10:20:02;27.13;;;25.63;;
1957;SDS011;979;51.076;13.748;2022-08-19T10:22:35;28.20;;;26.50;;
1957;SDS011;979;51.076;13.748;2022-08-19T10:25:05;27.70;;;26.10;;
1957;SDS011;979;51.076;13.748;2022-08-19T10:27:33;28.53;;;26.93;;
1957;SDS011;979;51.076;13.748;2022-08-19T10:30:06;26.80;;;25.30;;
1957;SDS011;979;51.076;13.748;2022-08-19T10:32:38;26.87;;;25.27;;
1957;SDS011;979;51.076;13.748;2022-08-19T10:35:12;26.93;;;25.53;;
1957;SDS011;979;51.076;13.748;2022-08-19T10:37:48;28.03;;;26.53;;
1957;SDS011;979;51.076;13.748;2022-08-19T10:40:29;28.13;;;26.53;;
1957;SDS011;979;51.076;13.748;2022-08-19T10:43:26;26.03;;;24.63;;
1957;SDS011;979;51.076;13.748;2022-08-19T10:45:58;25.80;;;24.40;;
1957;SDS011;979;51.076;13.748;2022-08-19T10:48:29;26.80;;;25.30;;
1957;SDS011;979;51.076;13.748;2022-08-19T10:51:15;26.60;;;25.17;;
1957;SDS011;979;51.076;13.748;2022-08-19T10:54:16;27.27;;;25.87;;
1957;SDS011;979;51.076;13.748;2022-08-19T10:57:00;27.07;;;25.70;;
1957;SDS011;979;51.076;13.748;2022-08-19T10:59:31;26.07;;;24.77;;
1957;SDS011;979;51.076;13.748;2022-08-19T11:02:04;26.57;;;25.27;;
1957;SDS011;979;51.076;13.748;2022-08-19T11:04:44;27.70;;;26.20;;
1957;SDS011;979;51.076;13.748;2022-08-19T11:07:15;27.50;;;26.00;;
1957;SDS011;979;51.076;13.748;2022-08-19T11:09:47;25.77;;;24.40;;
1957;SDS011;979;51.076;13.748;2022-08-19T11:15:40;27.63;;;26.07;;
1957;SDS011;979;51.076;13.748;2022-08-19T11:18:23;26.97;;;25.57;;
1957;SDS011;979;51.076;13.748;2022-08-19T11:20:54;26.07;;;24.57;;
1957;SDS011;979;51.076;13.748;2022-08-19T11:23:32;26.30;;;25.00;;
1957;SDS011;979;51.076;13.748;2022-08-19T11:26:01;27.27;;;25.77;;
1957;SDS011;979;51.076;13.748;2022-08-19T11:28:32;28.57;;;26.93;;
1957;SDS011;979;51.076;13.748;2022-08-19T11:31:03;29.00;;;27.37;;
1957;SDS011;979;51.076;13.748;2022-08-19T11:33:40;28.63;;;27.03;;
1957;SDS011;979;51.076;13.748;2022-08-19T11:36:14;26.87;;;25.43;;
1957;SDS011;979;51.076;13.748;2022-08-19T11:38:46;28.47;;;26.77;;
1957;SDS011;979;51.076;13.748;2022-08-19T11:44:08;29.20;;;27.40;;
1957;SDS011;979;51.076;13.748;2022-08-19T11:46:37;29.37;;;27.37;;
1957;SDS011;979;51.076;13.748;2022-08-19T11:49:14;30.60;;;28.63;;
1957;SDS011;979;51.076;13.748;2022-08-19T11:51:45;28.90;;;27.20;;
1957;SDS011;979;51.076;13.748;2022-08-19T11:54:16;29.20;;;27.50;;
1957;SDS011;979;51.076;13.748;2022-08-19T12:00:05;31.07;;;29.27;;
1957;SDS011;979;51.076;13.748;2022-08-19T12:03:02;29.87;;;28.07;;
1957;SDS011;979;51.076;13.748;2022-08-19T12:05:46;31.47;;;29.37;;
1957;SDS011;979;51.076;13.748;2022-08-19T12:08:15;34.37;;;32.00;;
1957;SDS011;979;51.076;13.748;2022-08-19T12:10:47;36.70;;;34.10;;
1957;SDS011;979;51.076;13.748;2022-08-19T12:13:24;35.00;;;32.37;;
1957;SDS011;979;51.076;13.748;2022-08-19T12:16:17;35.90;;;33.20;;
1957;SDS011;979;51.076;13.748;2022-08-19T12:19:06;36.30;;;33.70;;
1957;SDS011;979;51.076;13.748;2022-08-19T12:21:35;37.33;;;34.43;;
1957;SDS011;979;51.076;13.748;2022-08-19T12:24:06;37.33;;;34.53;;
1957;SDS011;979;51.076;13.748;2022-08-19T12:26:37;35.17;;;32.57;;
1957;SDS011;979;51.076;13.748;2022-08-19T12:29:20;37.30;;;34.33;;
1957;SDS011;979;51.076;13.748;2022-08-19T12:31:55;36.87;;;34.10;;
1957;SDS011;979;51.076;13.748;2022-08-19T12:34:30;39.30;;;36.20;;
1957;SDS011;979;51.076;13.748;2022-08-19T12:37:01;40.00;;;36.70;;
1957;SDS011;979;51.076;13.748;2022-08-19T12:39:33;38.57;;;35.57;;
1957;SDS011;979;51.076;13.748;2022-08-19T12:42:03;37.93;;;35.03;;
1957;SDS011;979;51.076;13.748;2022-08-19T12:44:35;38.47;;;35.60;;
1957;SDS011;979;51.076;13.748;2022-08-19T12:47:08;36.57;;;33.77;;
1957;SDS011;979;51.076;13.748;2022-08-19T12:49:38;37.33;;;34.43;;
1957;SDS011;979;51.076;13.748;2022-08-19T12:52:21;35.43;;;32.73;;
1957;SDS011;979;51.076;13.748;2022-08-19T12:54:50;37.00;;;34.27;;
1957;SDS011;979;51.076;13.748;2022-08-19T12:57:21;35.80;;;32.83;;
1957;SDS011;979;51.076;13.748;2022-08-19T13:00:00;35.40;;;32.50;;
1957;SDS011;979;51.076;13.748;2022-08-19T13:02:32;35.90;;;33.17;;
1957;SDS011;979;51.076;13.748;2022-08-19T13:05:05;36.80;;;34.10;;
1957;SDS011;979;51.076;13.748;2022-08-19T13:07:40;34.93;;;32.23;;
1957;SDS011;979;51.076;13.748;2022-08-19T13:10:10;33.67;;;31.27;;
1957;SDS011;979;51.076;13.748;2022-08-19T13:12:40;35.10;;;32.30;;
1957;SDS011;979;51.076;13.748;2022-08-19T13:15:11;33.67;;;31.00;;
1957;SDS011;979;51.076;13.748;2022-08-19T13:17:50;37.80;;;34.80;;
1957;SDS011;979;51.076;13.748;2022-08-19T13:30:22;38.83;;;35.73;;
1957;SDS011;979;51.076;13.748;2022-08-19T13:33:08;37.33;;;34.43;;
1957;SDS011;979;51.076;13.748;2022-08-19T13:35:45;38.10;;;35.27;;
1957;SDS011;979;51.076;13.748;2022-08-19T13:38:17;38.00;;;34.87;;
1957;SDS011;979;51.076;13.748;2022-08-19T13:41:06;37.37;;;34.33;;
1957;SDS011;979;51.076;13.748;2022-08-19T13:43:40;38.63;;;35.50;;
1957;SDS011;979;51.076;13.748;2022-08-19T13:46:10;36.93;;;34.17;;
1957;SDS011;979;51.076;13.748;2022-08-19T13:48:43;39.00;;;36.00;;
1957;SDS011;979;51.076;13.748;2022-08-19T13:51:16;36.80;;;34.00;;
1957;SDS011;979;51.076;13.748;2022-08-19T13:53:44;37.87;;;34.77;;
1957;SDS011;979;51.076;13.748;2022-08-19T13:56:14;41.03;;;37.80;;
1957;SDS011;979;51.076;13.748;2022-08-19T13:58:52;41.97;;;38.53;;
1957;SDS011;979;51.076;13.748;2022-08-19T14:01:30;40.43;;;37.33;;
1957;SDS011;979;51.076;13.748;2022-08-19T14:04:02;39.87;;;36.70;;
1957;SDS011;979;51.076;13.748;2022-08-19T14:06:32;40.33;;;37.23;;
1957;SDS011;979;51.076;13.748;2022-08-19T14:09:03;40.57;;;37.47;;
1957;SDS011;979;51.076;13.748;2022-08-19T14:11:37;42.43;;;38.93;;
1957;SDS011;979;51.076;13.748;2022-08-19T14:14:14;43.90;;;40.10;;
1957;SDS011;979;51.076;13.748;2022-08-19T14:16:44;41.17;;;38.07;;
1957;SDS011;979;51.076;13.748;2022-08-19T14:19:13;41.30;;;37.90;;
1957;SDS011;979;51.076;13.748;2022-08-19T14:21:47;41.00;;;37.60;;
1957;SDS011;979;51.076;13.748;2022-08-19T14:24:20;42.53;;;38.63;;
1957;SDS011;979;51.076;13.748;2022-08-19T14:26:49;43.43;;;39.90;;
1957;SDS011;979;51.076;13.748;2022-08-19T14:29:20;45.47;;;41.57;;
1957;SDS011;979;51.076;13.748;2022-08-19T14:31:50;46.07;;;42.47;;
1957;SDS011;979;51.076;13.748;2022-08-19T14:34:25;44.57;;;40.97;;
1957;SDS011;979;51.076;13.748;2022-08-19T14:36:53;44.67;;;40.57;;
1957;SDS011;979;51.076;13.748;2022-08-19T14:39:22;44.33;;;40.83;;
1957;SDS011;979;51.076;13.748;2022-08-19T14:41:58;43.60;;;39.90;;
1957;SDS011;979;51.076;13.748;2022-08-19T14:44:26;46.60;;;42.57;;
1957;SDS011;979;51.076;13.748;2022-08-19T14:47:00;44.70;;;41.10;;
1957;SDS011;979;51.076;13.748;2022-08-19T14:49:31;44.77;;;40.97;;
1957;SDS011;979;51.076;13.748;2022-08-19T14:52:15;47.13;;;43.03;;
1957;SDS011;979;51.076;13.748;2022-08-19T14:54:43;45.90;;;41.70;;
1957;SDS011;979;51.076;13.748;2022-08-19T14:57:15;45.90;;;41.83;;
1957;SDS011;979;51.076;13.748;2022-08-19T14:59:48;44.10;;;40.40;;
1957;SDS011;979;51.076;13.748;2022-08-19T15:02:22;45.67;;;41.57;;
1957;SDS011;979;51.076;13.748;2022-08-19T15:05:00;44.20;;;40.50;;
1957;SDS011;979;51.076;13.748;2022-08-19T15:07:32;46.60;;;42.33;;
1957;SDS011;979;51.076;13.748;2022-08-19T15:10:07;47.30;;;43.30;;
1957;SDS011;979;51.076;13.748;2022-08-19T15:12:41;45.63;;;41.30;;
1957;SDS011;979;51.076;13.748;2022-08-19T15:15:17;46.27;;;42.40;;
1957;SDS011;979;51.076;13.748;2022-08-19T15:17:50;44.60;;;40.60;;
1957;SDS011;979;51.076;13.748;2022-08-19T15:20:23;48.10;;;43.53;;
1957;SDS011;979;51.076;13.748;2022-08-19T15:23:01;49.10;;;44.20;;
1957;SDS011;979;51.076;13.748;2022-08-19T15:25:30;49.20;;;44.60;;
1957;SDS011;979;51.076;13.748;2022-08-19T15:31:04;46.20;;;42.00;;
1957;SDS011;979;51.076;13.748;2022-08-19T15:37:20;45.33;;;41.30;;
1957;SDS011;979;51.076;13.748;2022-08-19T15:40:16;48.17;;;43.87;;
1957;SDS011;979;51.076;13.748;2022-08-19T15:42:53;48.77;;;44.17;;
1957;SDS011;979;51.076;13.748;2022-08-19T15:45:24;45.90;;;41.87;;
1957;SDS011;979;51.076;13.748;2022-08-19T15:51:25;45.20;;;40.93;;
1957;SDS011;979;51.076;13.748;2022-08-19T15:54:16;42.10;;;38.53;;